createdAt,value
2019-02-01T00:03:59.767Z,5.10
2019-02-01T00:08:08.591Z,4.00
2019-02-01T00:12:16.573Z,4.13
2019-02-01T00:16:24.561Z,4.13
2019-02-01T00:20:32.650Z,3.47
2019-02-01T00:24:40.546Z,3.13
2019-02-01T00:28:48.529Z,3.60
2019-02-01T00:32:56.537Z,2.80
2019-02-01T00:37:04.524Z,2.93
2019-02-01T00:41:12.424Z,3.00
2019-02-01T00:45:20.112Z,3.47
2019-02-01T00:49:27.713Z,3.77
2019-02-01T00:53:35.498Z,3.53
2019-02-01T00:57:43.191Z,4.03
2019-02-01T01:01:51.272Z,2.80
2019-02-01T01:06:00.359Z,2.77
2019-02-01T01:10:10.442Z,4.33
2019-02-01T01:14:18.450Z,5.20
2019-02-01T01:18:26.450Z,5.57
2019-02-01T01:22:34.540Z,5.70
2019-02-01T01:26:42.313Z,6.90
2019-02-01T01:30:50.269Z,7.30
2019-02-01T01:34:58.249Z,8.97
2019-02-01T01:39:08.699Z,9.03
2019-02-01T01:43:17.053Z,9.30
2019-02-01T01:47:25.033Z,9.90
2019-02-01T01:51:33.131Z,9.07
2019-02-01T01:55:41.231Z,15.23
2019-02-01T01:59:49.230Z,13.87
2019-02-01T02:03:57.262Z,14.33
2019-02-01T02:08:06.049Z,17.30
2019-02-01T02:12:14.156Z,17.20
2019-02-01T02:16:21.855Z,15.20
2019-02-01T02:20:29.756Z,18.63
2019-02-01T02:24:37.453Z,17.60
2019-02-01T02:28:45.817Z,14.10
2019-02-01T02:32:54.257Z,13.57
2019-02-01T02:37:02.381Z,16.30
2019-02-01T02:41:11.377Z,14.90
2019-02-01T02:45:19.786Z,16.13
2019-02-01T02:49:27.877Z,16.33
2019-02-01T02:53:35.869Z,21.03
2019-02-01T02:57:43.777Z,18.07
2019-02-01T03:01:51.289Z,17.00
2019-02-01T03:05:59.292Z,14.73
2019-02-01T03:10:07.895Z,17.50
2019-02-01T03:14:15.793Z,15.87
2019-02-01T03:18:23.696Z,18.80
2019-02-01T03:22:31.712Z,19.70
2019-02-01T03:26:39.720Z,18.73
2019-02-01T03:30:47.716Z,23.07
2019-02-01T03:34:58.006Z,21.97
2019-02-01T03:39:07.783Z,22.50
2019-02-01T03:43:15.715Z,22.97
2019-02-01T03:47:23.808Z,21.93
2019-02-01T03:51:31.833Z,24.20
2019-02-01T03:55:39.731Z,23.40
2019-02-01T03:59:47.747Z,28.77
2019-02-01T04:03:55.755Z,25.57
2019-02-01T04:08:04.853Z,23.67
2019-02-01T04:12:12.844Z,23.23
2019-02-01T04:16:22.160Z,21.47
2019-02-01T04:20:29.948Z,22.10
2019-02-01T04:24:37.941Z,20.17
2019-02-01T04:28:45.657Z,24.80
2019-02-01T04:32:54.164Z,20.13
2019-02-01T04:37:02.187Z,19.37
2019-02-01T04:41:09.917Z,18.00
2019-02-01T04:45:23.397Z,19.90
2019-02-01T04:49:30.905Z,19.53
2019-02-01T04:53:38.998Z,19.27
2019-02-01T04:57:46.989Z,19.80
2019-02-01T05:01:54.965Z,19.53
2019-02-01T05:06:02.675Z,22.60
2019-02-01T05:10:12.196Z,16.80
2019-02-01T05:14:19.898Z,22.63
2019-02-01T05:18:27.419Z,22.40
2019-02-01T05:22:35.823Z,21.03
2019-02-01T05:26:43.834Z,24.03
2019-02-01T05:30:52.012Z,23.97
2019-02-01T05:35:00.041Z,21.87
2019-02-01T05:39:09.950Z,22.80
2019-02-01T05:43:17.879Z,23.73
2019-02-01T05:47:25.773Z,22.27
2019-02-01T05:51:33.683Z,24.17
2019-02-01T05:55:41.667Z,24.00
2019-02-01T05:59:49.589Z,24.63
2019-02-01T06:03:57.646Z,23.40
2019-02-01T06:08:05.563Z,20.80
2019-02-01T06:12:13.667Z,28.60
2019-02-01T06:16:22.139Z,27.60
2019-02-01T06:20:39.842Z,25.13
2019-02-01T06:24:40.644Z,25.97
2019-02-01T06:28:48.635Z,33.13
2019-02-01T06:32:56.732Z,26.57
2019-02-01T06:37:04.727Z,25.93
2019-02-01T06:41:13.136Z,25.63
2019-02-01T06:45:21.246Z,27.80
2019-02-01T06:49:28.866Z,22.23
2019-02-01T06:53:36.847Z,22.70
2019-02-01T06:57:44.808Z,24.83
2019-02-01T07:01:52.939Z,22.10
2019-02-01T07:06:00.496Z,23.43
2019-02-01T07:10:39.254Z,24.60
2019-02-01T07:15:12.634Z,22.57
2019-02-01T07:19:31.730Z,19.10
2019-02-01T07:23:57.290Z,20.93
2019-02-01T07:28:39.274Z,20.37
2019-02-01T07:33:09.057Z,19.73
2019-02-01T07:37:16.893Z,18.60
2019-02-01T07:41:25.021Z,15.63
2019-02-01T07:45:32.850Z,18.20
2019-02-01T07:49:40.595Z,16.73
2019-02-01T07:53:48.435Z,16.40
2019-02-01T07:57:56.459Z,15.00
2019-02-01T08:02:04.597Z,20.13
2019-02-01T08:06:12.723Z,15.10
2019-02-01T08:10:20.361Z,16.57
2019-02-01T08:14:30.589Z,18.47
2019-02-01T08:18:37.898Z,12.30
2019-02-01T08:22:45.831Z,11.53
2019-02-01T08:26:53.928Z,11.50
2019-02-01T08:31:01.644Z,13.73
2019-02-01T08:35:11.984Z,16.50
2019-02-01T08:39:19.926Z,13.70
2019-02-01T08:43:28.566Z,13.17
2019-02-01T08:47:36.683Z,13.47
2019-02-01T08:51:44.405Z,13.50
2019-02-01T08:55:52.345Z,13.40
2019-02-01T09:00:00.139Z,14.10
2019-02-01T09:04:08.744Z,13.50
2019-02-01T09:08:16.883Z,12.33
2019-02-01T09:12:24.767Z,13.23
2019-02-01T09:16:32.428Z,13.13
2019-02-01T09:20:40.327Z,14.10
2019-02-01T09:24:48.139Z,11.43
2019-02-01T09:28:56.173Z,10.47
2019-02-01T09:33:04.289Z,11.63
2019-02-01T09:37:11.995Z,7.63
2019-02-01T09:41:20.148Z,10.70
2019-02-01T09:45:28.292Z,9.70
2019-02-01T09:49:35.909Z,7.13
2019-02-01T09:53:43.726Z,5.93
2019-02-01T09:57:52.096Z,6.40
2019-02-01T10:02:00.119Z,6.33
2019-02-01T10:06:07.880Z,5.67
2019-02-01T10:10:17.494Z,9.47
2019-02-01T10:14:25.472Z,7.37
2019-02-01T10:18:33.415Z,8.87
2019-02-01T10:22:41.521Z,6.53
2019-02-01T10:26:49.523Z,6.10
2019-02-01T10:30:57.269Z,4.83
2019-02-01T10:35:05.519Z,7.83
2019-02-01T10:39:13.427Z,12.77
2019-02-01T10:43:21.150Z,9.33
2019-02-01T10:47:28.903Z,5.00
2019-02-01T10:51:36.964Z,4.73
2019-02-01T10:55:46.066Z,3.80
2019-02-01T10:59:54.189Z,3.67
2019-02-01T11:04:02.320Z,4.40
2019-02-01T11:08:10.151Z,4.40
2019-02-01T11:12:18.134Z,3.87
2019-02-01T11:16:27.281Z,5.77
2019-02-01T11:20:35.156Z,3.20
2019-02-01T11:24:43.203Z,6.00
2019-02-01T11:28:51.012Z,5.33
2019-02-01T11:32:58.758Z,5.40
2019-02-01T11:37:06.929Z,4.50
2019-02-01T11:41:14.835Z,3.90
2019-02-01T11:45:22.996Z,6.53
2019-02-01T11:49:30.643Z,4.77
2019-02-01T11:53:38.756Z,4.87
2019-02-01T11:57:46.983Z,3.97
2019-02-01T12:01:54.594Z,9.50
2019-02-01T12:06:02.311Z,5.00
2019-02-01T12:10:16.611Z,3.30
2019-02-01T12:14:24.138Z,4.17
2019-02-01T12:18:31.863Z,2.87
2019-02-01T12:22:39.664Z,5.47
2019-02-01T12:26:47.583Z,2.73
2019-02-01T12:30:55.616Z,2.80
2019-02-01T12:35:03.787Z,2.40
2019-02-01T12:39:11.496Z,6.07
2019-02-01T12:43:19.009Z,2.97
2019-02-01T12:47:26.749Z,3.43
2019-02-01T12:51:34.844Z,2.50
2019-02-01T12:55:43.044Z,3.40
2019-02-01T12:59:50.754Z,3.80
2019-02-01T13:03:58.830Z,2.83
2019-02-01T13:08:08.323Z,2.50
2019-02-01T13:12:16.534Z,2.13
2019-02-01T13:16:24.474Z,2.10
2019-02-01T13:20:32.299Z,4.70
2019-02-01T13:24:45.290Z,4.03
2019-02-01T13:28:49.627Z,2.43
2019-02-01T13:32:58.137Z,1.40
2019-02-01T13:37:06.171Z,2.27
2019-02-01T13:41:13.892Z,2.17
2019-02-01T13:45:21.722Z,2.30
2019-02-01T13:49:29.451Z,2.67
2019-02-01T13:53:37.933Z,1.60
2019-02-01T13:57:46.063Z,3.03
2019-02-01T14:01:54.600Z,1.70
2019-02-01T14:06:02.688Z,3.53
2019-02-01T14:10:14.105Z,1.80
2019-02-01T14:14:22.310Z,2.40
2019-02-01T14:18:32.059Z,2.07
2019-02-01T14:22:39.766Z,2.67
2019-02-01T14:26:47.535Z,2.67
2019-02-01T14:30:55.424Z,10.00
2019-02-01T14:35:03.231Z,3.77
2019-02-01T14:39:11.362Z,2.27
2019-02-01T14:43:19.171Z,2.73
2019-02-01T14:47:26.791Z,1.97
2019-02-01T14:51:34.629Z,1.60
2019-02-01T14:55:42.577Z,4.67
2019-02-01T14:59:50.266Z,2.17
2019-02-01T15:03:57.970Z,5.93
2019-02-01T15:08:06.235Z,3.00
2019-02-01T15:12:14.453Z,5.73
2019-02-01T15:16:37.525Z,19.83
2019-02-01T15:20:33.218Z,11.33
2019-02-01T15:24:41.315Z,6.33
2019-02-01T15:28:49.241Z,14.77
2019-02-01T15:32:57.329Z,8.73
2019-02-01T15:37:05.446Z,4.83
2019-02-01T15:41:13.421Z,18.30
2019-02-01T15:45:21.537Z,4.67
2019-02-01T15:49:29.274Z,6.70
2019-02-01T15:53:37.396Z,24.87
2019-02-01T15:57:45.683Z,21.50
2019-02-01T16:01:53.881Z,17.43
2019-02-01T16:06:01.885Z,55.03
2019-02-01T16:10:11.592Z,29.87
2019-02-01T16:14:19.932Z,26.50
2019-02-01T16:18:28.085Z,21.57
2019-02-01T16:22:36.389Z,30.70
2019-02-01T16:26:44.600Z,78.37
2019-02-01T16:30:52.476Z,31.83
2019-02-01T16:35:00.636Z,19.60
2019-02-01T16:39:10.078Z,18.20
2019-02-01T16:43:18.308Z,16.67
2019-02-01T16:47:26.298Z,24.20
2019-02-01T16:51:34.603Z,43.23
2019-02-01T16:55:42.648Z,29.17
2019-02-01T16:59:50.643Z,25.87
2019-02-01T17:03:58.421Z,56.87
2019-02-01T17:08:08.608Z,41.83
2019-02-01T17:12:16.226Z,48.17
2019-02-01T17:16:24.266Z,80.20
2019-02-01T17:20:33.805Z,76.73
2019-02-01T17:24:41.822Z,83.97
2019-02-01T17:28:49.567Z,27.70
2019-02-01T17:32:58.494Z,23.00
2019-02-01T17:37:06.351Z,17.23
2019-02-01T17:41:13.997Z,19.37
2019-02-01T17:45:22.169Z,16.50
2019-02-01T17:49:31.394Z,16.97
2019-02-01T17:53:39.502Z,22.80
2019-02-01T17:57:47.129Z,12.07
2019-02-01T18:01:55.094Z,18.90
2019-02-01T18:06:03.268Z,25.57
2019-02-01T18:10:12.611Z,28.37
2019-02-01T18:14:21.596Z,49.87
2019-02-01T18:18:29.772Z,24.80
2019-02-01T18:22:44.427Z,27.57
2019-02-01T18:26:54.617Z,13.97
2019-02-01T18:31:02.926Z,16.90
2019-02-01T18:35:10.702Z,13.03
2019-02-01T18:39:18.750Z,14.00
2019-02-01T18:43:26.706Z,16.63
2019-02-01T18:47:36.224Z,28.43
2019-02-01T18:51:44.493Z,19.63
2019-02-01T18:55:54.597Z,16.10
2019-02-01T19:00:02.350Z,13.93
2019-02-01T19:04:11.373Z,7.23
2019-02-01T19:08:19.433Z,9.93
2019-02-01T19:12:27.305Z,18.63
2019-02-01T19:16:35.228Z,22.37
2019-02-01T19:20:43.356Z,24.97
2019-02-01T19:24:51.394Z,23.23
2019-02-01T19:28:59.551Z,16.07
2019-02-01T19:33:08.327Z,18.33
2019-02-01T19:37:16.473Z,17.60
2019-02-01T19:41:24.629Z,19.10
2019-02-01T19:45:32.979Z,13.20
2019-02-01T19:49:41.647Z,15.80
2019-02-01T19:53:49.792Z,16.63
2019-02-01T19:57:57.765Z,14.20
2019-02-01T20:02:06.051Z,15.47
2019-02-01T20:06:13.911Z,19.00
2019-02-01T20:10:24.145Z,13.53
2019-02-01T20:14:33.262Z,7.77
2019-02-01T20:18:41.126Z,11.17
2019-02-01T20:22:49.180Z,6.43
2019-02-01T20:26:57.308Z,5.33
2019-02-01T20:31:05.540Z,8.77
2019-02-01T20:35:14.627Z,6.87
2019-02-01T20:39:22.785Z,9.30
2019-02-01T20:43:31.092Z,18.27
2019-02-01T20:47:41.616Z,11.43
2019-02-01T20:51:49.694Z,6.43
2019-02-01T20:55:57.976Z,6.27
2019-02-01T21:00:11.244Z,10.90
2019-02-01T21:04:19.417Z,18.87
2019-02-01T21:08:27.826Z,11.67
2019-02-01T21:12:36.065Z,9.67
2019-02-01T21:16:44.130Z,13.43
2019-02-01T21:20:52.065Z,14.87
2019-02-01T21:25:00.306Z,15.37
2019-02-01T21:29:08.434Z,21.03
2019-02-01T21:33:16.553Z,12.17
2019-02-01T21:37:24.711Z,14.93
2019-02-01T21:41:33.116Z,18.27
2019-02-01T21:45:42.915Z,16.90
2019-02-01T21:49:50.817Z,11.10
2019-02-01T21:53:58.952Z,11.17
2019-02-01T21:58:07.408Z,17.50
2019-02-01T22:02:15.527Z,16.27
2019-02-01T22:06:23.576Z,15.03
2019-02-01T22:10:32.873Z,19.23
2019-02-01T22:14:41.047Z,14.50
2019-02-01T22:18:48.689Z,17.57
2019-02-01T22:22:56.821Z,12.20
2019-02-01T22:27:05.168Z,13.77
2019-02-01T22:31:12.995Z,9.23
2019-02-01T22:35:22.355Z,9.10
2019-02-01T22:39:30.539Z,14.00
2019-02-01T22:43:38.665Z,8.57
2019-02-01T22:47:46.618Z,7.50
2019-02-01T22:51:54.710Z,10.23
2019-02-01T22:56:02.419Z,7.80
2019-02-01T23:01:25.079Z,5.40
2019-02-01T23:05:33.141Z,7.23
2019-02-01T23:09:41.155Z,8.13
2019-02-01T23:13:49.214Z,10.80
2019-02-01T23:17:58.622Z,7.00
2019-02-01T23:22:12.447Z,6.53
2019-02-01T23:26:25.274Z,8.20
2019-02-01T23:30:35.883Z,7.13
2019-02-01T23:34:45.857Z,9.87
2019-02-01T23:38:53.799Z,9.10
2019-02-01T23:43:12.885Z,9.80
2019-02-01T23:47:24.943Z,6.93
2019-02-01T23:51:42.024Z,7.23
2019-02-01T23:55:58.698Z,8.87
